Terminal Aerodrome Forecast
Issued by NWS Lubbock, TX

Home | Current Version | Previous Version | Text Only | Print | Product List | Glossary On
Versions: 1 2 3 4 5 6 7 8 9 10 11 12 13 14 15 16
000
FTUS44 KLUB 180300 AAB
TAFLBB
TAF AMD
KLBB 180357Z 1804/1824 16007KT 6SM BR SCT003
      TEMPO 1806/1809 4SM BR BKN003
     FM180900 30009KT P6SM SCT200
     FM182100 04006KT P6SM BKN180=

USA.gov is the U.S. government's official web portal to all federal, state and local government web resources and services.